sensor_id;sensor_type;location;lat;lon;timestamp;temperature;humidity
39067;DHT22;24821;51.988;6.020;2023-05-14T00:00:42;15.40;98.30
39067;DHT22;24821;51.988;6.020;2023-05-14T00:03:08;15.40;98.40
39067;DHT22;24821;51.988;6.020;2023-05-14T00:05:33;15.40;98.60
39067;DHT22;24821;51.988;6.020;2023-05-14T00:07:59;15.40;98.60
39067;DHT22;24821;51.988;6.020;2023-05-14T00:10:26;15.40;98.70
39067;DHT22;24821;51.988;6.020;2023-05-14T00:12:51;15.30;98.80
39067;DHT22;24821;51.988;6.020;2023-05-14T00:15:17;15.30;98.90
39067;DHT22;24821;51.988;6.020;2023-05-14T00:17:43;15.20;99.00
39067;DHT22;24821;51.988;6.020;2023-05-14T00:20:09;15.20;99.10
39067;DHT22;24821;51.988;6.020;2023-05-14T00:22:36;15.20;99.20
39067;DHT22;24821;51.988;6.020;2023-05-14T00:25:02;15.10;99.30
39067;DHT22;24821;51.988;6.020;2023-05-14T00:27:28;15.00;99.40
39067;DHT22;24821;51.988;6.020;2023-05-14T00:29:53;15.00;99.60
39067;DHT22;24821;51.988;6.020;2023-05-14T00:32:19;15.00;99.70
39067;DHT22;24821;51.988;6.020;2023-05-14T00:34:45;14.80;99.80
39067;DHT22;24821;51.988;6.020;2023-05-14T00:37:10;14.80;99.90
39067;DHT22;24821;51.988;6.020;2023-05-14T00:39:36;14.70;99.90
39067;DHT22;24821;51.988;6.020;2023-05-14T00:42:01;14.70;99.90
39067;DHT22;24821;51.988;6.020;2023-05-14T00:44:27;14.70;99.90
39067;DHT22;24821;51.988;6.020;2023-05-14T00:46:53;14.60;99.90
39067;DHT22;24821;51.988;6.020;2023-05-14T00:49:19;14.60;99.90
39067;DHT22;24821;51.988;6.020;2023-05-14T00:51:45;14.50;99.90
39067;DHT22;24821;51.988;6.020;2023-05-14T00:54:13;14.50;99.90
39067;DHT22;24821;51.988;6.020;2023-05-14T00:56:41;14.50;99.90
39067;DHT22;24821;51.988;6.020;2023-05-14T00:59:07;14.40;99.90
39067;DHT22;24821;51.988;6.020;2023-05-14T01:01:32;14.40;99.90
39067;DHT22;24821;51.988;6.020;2023-05-14T01:03:58;14.40;99.90
39067;DHT22;24821;51.988;6.020;2023-05-14T01:09:39;14.40;99.90
39067;DHT22;24821;51.988;6.020;2023-05-14T01:15:11;14.30;99.90
39067;DHT22;24821;51.988;6.020;2023-05-14T01:17:47;14.30;99.90
39067;DHT22;24821;51.988;6.020;2023-05-14T01:20:14;14.40;99.90
39067;DHT22;24821;51.988;6.020;2023-05-14T01:22:40;14.40;99.90
39067;DHT22;24821;51.988;6.020;2023-05-14T01:25:06;14.50;99.90
39067;DHT22;24821;51.988;6.020;2023-05-14T01:30:29;14.60;99.90
39067;DHT22;24821;51.988;6.020;2023-05-14T01:32:58;14.70;99.90
39067;DHT22;24821;51.988;6.020;2023-05-14T01:35:28;14.60;99.90
39067;DHT22;24821;51.988;6.020;2023-05-14T01:37:56;14.70;99.90
39067;DHT22;24821;51.988;6.020;2023-05-14T01:40:23;14.60;99.90
39067;DHT22;24821;51.988;6.020;2023-05-14T01:42:49;14.60;99.90
39067;DHT22;24821;51.988;6.020;2023-05-14T01:45:16;14.60;99.90
39067;DHT22;24821;51.988;6.020;2023-05-14T01:47:44;14.50;99.90
39067;DHT22;24821;51.988;6.020;2023-05-14T01:50:09;14.50;99.90
39067;DHT22;24821;51.988;6.020;2023-05-14T01:52:35;14.40;99.90
39067;DHT22;24821;51.988;6.020;2023-05-14T01:55:00;14.40;99.90
39067;DHT22;24821;51.988;6.020;2023-05-14T01:57:26;14.30;99.90
39067;DHT22;24821;51.988;6.020;2023-05-14T01:59:52;14.30;99.90
39067;DHT22;24821;51.988;6.020;2023-05-14T02:02:17;14.20;99.90
39067;DHT22;24821;51.988;6.020;2023-05-14T02:04:43;14.20;99.90
39067;DHT22;24821;51.988;6.020;2023-05-14T02:07:08;14.20;99.90
39067;DHT22;24821;51.988;6.020;2023-05-14T02:09:34;14.20;99.90
39067;DHT22;24821;51.988;6.020;2023-05-14T02:12:00;14.10;99.90
39067;DHT22;24821;51.988;6.020;2023-05-14T02:14:25;14.00;99.90
39067;DHT22;24821;51.988;6.020;2023-05-14T02:16:51;14.10;99.90
39067;DHT22;24821;51.988;6.020;2023-05-14T02:19:16;14.00;99.90
39067;DHT22;24821;51.988;6.020;2023-05-14T02:21:42;13.90;99.90
39067;DHT22;24821;51.988;6.020;2023-05-14T02:24:08;13.90;99.90
39067;DHT22;24821;51.988;6.020;2023-05-14T02:26:33;13.90;99.90
39067;DHT22;24821;51.988;6.020;2023-05-14T02:28:59;13.90;99.90
39067;DHT22;24821;51.988;6.020;2023-05-14T02:31:24;13.90;99.90
39067;DHT22;24821;51.988;6.020;2023-05-14T02:33:50;13.80;99.90
39067;DHT22;24821;51.988;6.020;2023-05-14T02:36:17;13.80;99.90
39067;DHT22;24821;51.988;6.020;2023-05-14T02:38:42;13.80;99.90
39067;DHT22;24821;51.988;6.020;2023-05-14T02:41:08;13.70;99.90
39067;DHT22;24821;51.988;6.020;2023-05-14T02:43:33;13.70;99.90
39067;DHT22;24821;51.988;6.020;2023-05-14T02:45:59;13.70;99.90
39067;DHT22;24821;51.988;6.020;2023-05-14T02:48:24;13.60;99.90
39067;DHT22;24821;51.988;6.020;2023-05-14T02:50:50;13.60;99.90
39067;DHT22;24821;51.988;6.020;2023-05-14T02:53:16;13.50;99.90
39067;DHT22;24821;51.988;6.020;2023-05-14T02:55:42;13.40;99.90
39067;DHT22;24821;51.988;6.020;2023-05-14T02:58:08;13.30;99.90
39067;DHT22;24821;51.988;6.020;2023-05-14T03:00:34;13.30;99.90
39067;DHT22;24821;51.988;6.020;2023-05-14T03:03:00;13.20;99.90
39067;DHT22;24821;51.988;6.020;2023-05-14T03:05:25;13.20;99.90
39067;DHT22;24821;51.988;6.020;2023-05-14T03:07:51;13.20;99.90
39067;DHT22;24821;51.988;6.020;2023-05-14T03:10:18;13.10;99.90
39067;DHT22;24821;51.988;6.020;2023-05-14T03:12:44;13.10;99.90
39067;DHT22;24821;51.988;6.020;2023-05-14T03:15:10;13.10;99.90
39067;DHT22;24821;51.988;6.020;2023-05-14T03:17:35;13.00;99.90
39067;DHT22;24821;51.988;6.020;2023-05-14T03:20:01;13.00;99.90
39067;DHT22;24821;51.988;6.020;2023-05-14T03:22:27;13.00;99.90
39067;DHT22;24821;51.988;6.020;2023-05-14T03:24:53;13.00;99.90
39067;DHT22;24821;51.988;6.020;2023-05-14T03:27:19;12.90;99.90
39067;DHT22;24821;51.988;6.020;2023-05-14T03:29:45;12.90;99.90
39067;DHT22;24821;51.988;6.020;2023-05-14T03:32:10;12.80;99.90
39067;DHT22;24821;51.988;6.020;2023-05-14T03:34:36;12.80;99.90
39067;DHT22;24821;51.988;6.020;2023-05-14T03:37:01;12.80;99.90
39067;DHT22;24821;51.988;6.020;2023-05-14T03:39:27;12.80;99.90
39067;DHT22;24821;51.988;6.020;2023-05-14T03:41:52;12.80;99.90
39067;DHT22;24821;51.988;6.020;2023-05-14T03:44:18;12.70;99.90
39067;DHT22;24821;51.988;6.020;2023-05-14T03:46:44;12.80;99.90
39067;DHT22;24821;51.988;6.020;2023-05-14T03:49:09;12.80;99.90
39067;DHT22;24821;51.988;6.020;2023-05-14T03:51:35;12.70;99.90
39067;DHT22;24821;51.988;6.020;2023-05-14T03:54:01;12.80;99.90
39067;DHT22;24821;51.988;6.020;2023-05-14T03:56:26;12.70;99.90
39067;DHT22;24821;51.988;6.020;2023-05-14T03:58:52;12.80;99.90
39067;DHT22;24821;51.988;6.020;2023-05-14T04:01:18;12.70;99.90
39067;DHT22;24821;51.988;6.020;2023-05-14T04:03:43;12.80;99.90
39067;DHT22;24821;51.988;6.020;2023-05-14T04:06:09;12.80;99.90
39067;DHT22;24821;51.988;6.020;2023-05-14T04:08:34;12.70;99.90
39067;DHT22;24821;51.988;6.020;2023-05-14T04:11:00;12.70;99.90
39067;DHT22;24821;51.988;6.020;2023-05-14T04:13:25;12.80;99.90
39067;DHT22;24821;51.988;6.020;2023-05-14T04:15:51;12.80;99.90
39067;DHT22;24821;51.988;6.020;2023-05-14T04:18:17;12.80;99.90
39067;DHT22;24821;51.988;6.020;2023-05-14T04:20:43;12.70;99.90
39067;DHT22;24821;51.988;6.020;2023-05-14T04:23:08;12.80;99.90
39067;DHT22;24821;51.988;6.020;2023-05-14T04:25:34;12.80;99.90
39067;DHT22;24821;51.988;6.020;2023-05-14T04:27:59;12.70;99.90
39067;DHT22;24821;51.988;6.020;2023-05-14T04:30:25;12.70;99.90
39067;DHT22;24821;51.988;6.020;2023-05-14T04:32:51;12.70;99.90
39067;DHT22;24821;51.988;6.020;2023-05-14T04:35:16;12.70;99.90
39067;DHT22;24821;51.988;6.020;2023-05-14T04:37:42;12.70;99.90
39067;DHT22;24821;51.988;6.020;2023-05-14T04:40:08;12.70;99.90
39067;DHT22;24821;51.988;6.020;2023-05-14T04:42:37;12.70;99.90
39067;DHT22;24821;51.988;6.020;2023-05-14T04:45:04;12.80;99.90
39067;DHT22;24821;51.988;6.020;2023-05-14T04:47:30;12.80;99.90
39067;DHT22;24821;51.988;6.020;2023-05-14T04:49:56;12.90;99.90
39067;DHT22;24821;51.988;6.020;2023-05-14T04:52:22;13.00;99.90
39067;DHT22;24821;51.988;6.020;2023-05-14T04:54:48;13.00;99.90
39067;DHT22;24821;51.988;6.020;2023-05-14T04:57:14;13.10;99.90
39067;DHT22;24821;51.988;6.020;2023-05-14T04:59:39;13.10;99.90
39067;DHT22;24821;51.988;6.020;2023-05-14T05:02:05;13.20;99.90
39067;DHT22;24821;51.988;6.020;2023-05-14T05:04:30;13.30;99.90
39067;DHT22;24821;51.988;6.020;2023-05-14T05:06:56;13.30;99.90
39067;DHT22;24821;51.988;6.020;2023-05-14T05:09:21;13.40;99.90
39067;DHT22;24821;51.988;6.020;2023-05-14T05:11:47;13.50;99.90
39067;DHT22;24821;51.988;6.020;2023-05-14T05:14:13;13.60;99.90
39067;DHT22;24821;51.988;6.020;2023-05-14T05:16:38;13.80;99.90
39067;DHT22;24821;51.988;6.020;2023-05-14T05:19:04;14.00;99.90
39067;DHT22;24821;51.988;6.020;2023-05-14T05:21:29;14.10;99.90
39067;DHT22;24821;51.988;6.020;2023-05-14T05:23:55;14.20;99.90
39067;DHT22;24821;51.988;6.020;2023-05-14T05:26:21;14.30;99.90
39067;DHT22;24821;51.988;6.020;2023-05-14T05:28:46;14.40;99.90
39067;DHT22;24821;51.988;6.020;2023-05-14T05:31:12;14.50;99.90
39067;DHT22;24821;51.988;6.020;2023-05-14T05:33:38;14.60;99.90
39067;DHT22;24821;51.988;6.020;2023-05-14T05:36:04;14.70;99.90
39067;DHT22;24821;51.988;6.020;2023-05-14T05:38:29;14.80;99.90
39067;DHT22;24821;51.988;6.020;2023-05-14T05:40:55;14.80;99.90
39067;DHT22;24821;51.988;6.020;2023-05-14T05:43:20;14.80;99.90
39067;DHT22;24821;51.988;6.020;2023-05-14T05:45:46;14.70;99.90
39067;DHT22;24821;51.988;6.020;2023-05-14T05:48:12;14.60;99.90
39067;DHT22;24821;51.988;6.020;2023-05-14T05:50:37;14.60;99.90
39067;DHT22;24821;51.988;6.020;2023-05-14T05:53:03;14.80;99.90
39067;DHT22;24821;51.988;6.020;2023-05-14T05:55:28;15.00;99.90
39067;DHT22;24821;51.988;6.020;2023-05-14T05:57:54;15.20;99.90
39067;DHT22;24821;51.988;6.020;2023-05-14T06:00:20;15.30;99.90
39067;DHT22;24821;51.988;6.020;2023-05-14T06:02:46;15.50;99.90
39067;DHT22;24821;51.988;6.020;2023-05-14T06:05:11;15.60;99.90
39067;DHT22;24821;51.988;6.020;2023-05-14T06:07:37;15.70;99.90
39067;DHT22;24821;51.988;6.020;2023-05-14T06:10:03;15.70;99.90
39067;DHT22;24821;51.988;6.020;2023-05-14T06:12:29;15.90;99.90
39067;DHT22;24821;51.988;6.020;2023-05-14T06:14:57;16.00;99.90
39067;DHT22;24821;51.988;6.020;2023-05-14T06:17:24;16.10;99.90
39067;DHT22;24821;51.988;6.020;2023-05-14T06:19:50;16.00;99.90
39067;DHT22;24821;51.988;6.020;2023-05-14T06:22:16;15.90;99.90
39067;DHT22;24821;51.988;6.020;2023-05-14T06:24:42;15.90;99.90
39067;DHT22;24821;51.988;6.020;2023-05-14T06:27:07;15.90;99.90
39067;DHT22;24821;51.988;6.020;2023-05-14T06:29:33;16.00;99.90
39067;DHT22;24821;51.988;6.020;2023-05-14T06:32:02;16.10;99.90
39067;DHT22;24821;51.988;6.020;2023-05-14T06:34:29;16.20;99.90
39067;DHT22;24821;51.988;6.020;2023-05-14T06:36:54;16.20;99.90
39067;DHT22;24821;51.988;6.020;2023-05-14T06:39:20;16.20;99.90
39067;DHT22;24821;51.988;6.020;2023-05-14T06:41:45;16.30;99.90
39067;DHT22;24821;51.988;6.020;2023-05-14T06:44:11;16.30;99.90
39067;DHT22;24821;51.988;6.020;2023-05-14T06:46:37;16.40;99.90
39067;DHT22;24821;51.988;6.020;2023-05-14T06:49:02;16.40;99.90
39067;DHT22;24821;51.988;6.020;2023-05-14T06:51:28;16.50;99.90
39067;DHT22;24821;51.988;6.020;2023-05-14T06:53:56;16.60;99.90
39067;DHT22;24821;51.988;6.020;2023-05-14T06:56:22;16.70;99.90
39067;DHT22;24821;51.988;6.020;2023-05-14T06:59:02;16.80;99.90
39067;DHT22;24821;51.988;6.020;2023-05-14T07:01:28;16.90;99.90
39067;DHT22;24821;51.988;6.020;2023-05-14T07:04:03;17.00;99.90
39067;DHT22;24821;51.988;6.020;2023-05-14T07:06:36;17.20;99.90
39067;DHT22;24821;51.988;6.020;2023-05-14T07:09:02;17.40;99.90
39067;DHT22;24821;51.988;6.020;2023-05-14T07:11:28;17.50;99.90
39067;DHT22;24821;51.988;6.020;2023-05-14T07:13:55;17.70;99.90
39067;DHT22;24821;51.988;6.020;2023-05-14T07:16:21;17.70;99.90
39067;DHT22;24821;51.988;6.020;2023-05-14T07:18:47;17.70;99.90
39067;DHT22;24821;51.988;6.020;2023-05-14T07:21:12;17.70;99.90
39067;DHT22;24821;51.988;6.020;2023-05-14T07:23:43;17.70;99.90
39067;DHT22;24821;51.988;6.020;2023-05-14T07:26:09;17.80;99.90
39067;DHT22;24821;51.988;6.020;2023-05-14T07:28:35;17.80;99.90
39067;DHT22;24821;51.988;6.020;2023-05-14T07:31:01;17.80;99.90
39067;DHT22;24821;51.988;6.020;2023-05-14T07:33:26;17.90;99.90
39067;DHT22;24821;51.988;6.020;2023-05-14T07:36:01;17.90;99.90
39067;DHT22;24821;51.988;6.020;2023-05-14T07:38:27;18.10;99.90
39067;DHT22;24821;51.988;6.020;2023-05-14T07:40:52;18.10;99.90
39067;DHT22;24821;51.988;6.020;2023-05-14T07:43:18;18.20;99.90
39067;DHT22;24821;51.988;6.020;2023-05-14T07:45:47;18.30;99.90
39067;DHT22;24821;51.988;6.020;2023-05-14T07:48:12;18.40;99.90
39067;DHT22;24821;51.988;6.020;2023-05-14T07:50:38;18.70;99.90
39067;DHT22;24821;51.988;6.020;2023-05-14T07:53:04;18.90;99.90
39067;DHT22;24821;51.988;6.020;2023-05-14T07:55:29;19.30;99.40
39067;DHT22;24821;51.988;6.020;2023-05-14T07:57:55;19.70;99.00
39067;DHT22;24821;51.988;6.020;2023-05-14T08:00:24;20.10;98.50
39067;DHT22;24821;51.988;6.020;2023-05-14T08:02:50;20.50;97.80
39067;DHT22;24821;51.988;6.020;2023-05-14T08:05:16;20.90;96.80
39067;DHT22;24821;51.988;6.020;2023-05-14T08:07:42;21.20;96.00
39067;DHT22;24821;51.988;6.020;2023-05-14T08:10:08;21.50;95.80
39067;DHT22;24821;51.988;6.020;2023-05-14T08:12:33;21.70;95.90
39067;DHT22;24821;51.988;6.020;2023-05-14T08:14:59;22.00;95.00
39067;DHT22;24821;51.988;6.020;2023-05-14T08:17:25;22.30;94.50
39067;DHT22;24821;51.988;6.020;2023-05-14T08:19:51;22.50;94.20
39067;DHT22;24821;51.988;6.020;2023-05-14T08:22:16;22.70;94.10
39067;DHT22;24821;51.988;6.020;2023-05-14T08:24:42;23.10;93.20
39067;DHT22;24821;51.988;6.020;2023-05-14T08:27:08;23.40;93.20
39067;DHT22;24821;51.988;6.020;2023-05-14T08:29:34;23.60;92.50
39067;DHT22;24821;51.988;6.020;2023-05-14T08:31:59;23.90;91.10
39067;DHT22;24821;51.988;6.020;2023-05-14T08:34:25;24.10;90.70
39067;DHT22;24821;51.988;6.020;2023-05-14T08:36:52;24.20;90.00
39067;DHT22;24821;51.988;6.020;2023-05-14T08:39:17;24.40;90.30
39067;DHT22;24821;51.988;6.020;2023-05-14T08:41:44;24.70;90.70
39067;DHT22;24821;51.988;6.020;2023-05-14T08:44:20;25.00;89.40
39067;DHT22;24821;51.988;6.020;2023-05-14T08:46:50;25.30;87.20
39067;DHT22;24821;51.988;6.020;2023-05-14T08:51:55;25.90;84.10
39067;DHT22;24821;51.988;6.020;2023-05-14T08:54:21;26.00;82.40
39067;DHT22;24821;51.988;6.020;2023-05-14T08:56:50;25.70;81.40
39067;DHT22;24821;51.988;6.020;2023-05-14T08:59:16;25.50;81.70
39067;DHT22;24821;51.988;6.020;2023-05-14T09:01:46;25.20;81.70
39067;DHT22;24821;51.988;6.020;2023-05-14T09:04:18;24.90;83.70
39067;DHT22;24821;51.988;6.020;2023-05-14T09:06:47;24.80;82.30
39067;DHT22;24821;51.988;6.020;2023-05-14T09:09:13;24.60;82.10
39067;DHT22;24821;51.988;6.020;2023-05-14T09:11:45;24.40;81.70
39067;DHT22;24821;51.988;6.020;2023-05-14T09:14:11;24.30;82.00
39067;DHT22;24821;51.988;6.020;2023-05-14T09:16:38;24.20;82.70
39067;DHT22;24821;51.988;6.020;2023-05-14T09:19:05;24.50;84.50
39067;DHT22;24821;51.988;6.020;2023-05-14T09:21:31;24.90;83.10
39067;DHT22;24821;51.988;6.020;2023-05-14T09:23:57;25.10;81.70
39067;DHT22;24821;51.988;6.020;2023-05-14T09:26:23;25.40;82.00
39067;DHT22;24821;51.988;6.020;2023-05-14T09:29:00;25.70;81.50
39067;DHT22;24821;51.988;6.020;2023-05-14T09:31:28;26.00;79.70
39067;DHT22;24821;51.988;6.020;2023-05-14T09:33:53;26.20;81.00
39067;DHT22;24821;51.988;6.020;2023-05-14T09:36:19;26.40;81.90
39067;DHT22;24821;51.988;6.020;2023-05-14T09:38:45;26.50;81.20
39067;DHT22;24821;51.988;6.020;2023-05-14T09:41:10;26.70;83.10
39067;DHT22;24821;51.988;6.020;2023-05-14T09:43:36;26.80;81.50
39067;DHT22;24821;51.988;6.020;2023-05-14T09:46:02;26.90;81.10
39067;DHT22;24821;51.988;6.020;2023-05-14T09:48:27;27.00;80.40
39067;DHT22;24821;51.988;6.020;2023-05-14T09:50:53;26.90;77.70
39067;DHT22;24821;51.988;6.020;2023-05-14T09:53:19;26.90;78.10
39067;DHT22;24821;51.988;6.020;2023-05-14T09:55:45;26.90;77.50
39067;DHT22;24821;51.988;6.020;2023-05-14T09:58:11;26.90;79.20
39067;DHT22;24821;51.988;6.020;2023-05-14T10:00:38;26.90;76.30
39067;DHT22;24821;51.988;6.020;2023-05-14T10:03:07;26.90;75.40
39067;DHT22;24821;51.988;6.020;2023-05-14T10:05:35;26.90;75.80
39067;DHT22;24821;51.988;6.020;2023-05-14T10:08:07;26.70;75.30
39067;DHT22;24821;51.988;6.020;2023-05-14T10:10:34;26.70;76.80
39067;DHT22;24821;51.988;6.020;2023-05-14T10:13:08;26.60;75.80
39067;DHT22;24821;51.988;6.020;2023-05-14T10:15:39;26.60;76.50
39067;DHT22;24821;51.988;6.020;2023-05-14T10:18:12;26.60;78.40
39067;DHT22;24821;51.988;6.020;2023-05-14T10:20:40;26.60;78.10
39067;DHT22;24821;51.988;6.020;2023-05-14T10:23:06;26.50;75.30
39067;DHT22;24821;51.988;6.020;2023-05-14T10:25:34;26.40;76.10
39067;DHT22;24821;51.988;6.020;2023-05-14T10:28:00;26.40;73.80
39067;DHT22;24821;51.988;6.020;2023-05-14T10:30:26;26.30;74.10
39067;DHT22;24821;51.988;6.020;2023-05-14T10:33:08;26.10;73.50
39067;DHT22;24821;51.988;6.020;2023-05-14T10:35:52;25.90;72.40
39067;DHT22;24821;51.988;6.020;2023-05-14T10:38:33;25.80;72.50
39067;DHT22;24821;51.988;6.020;2023-05-14T10:41:02;25.70;73.80
39067;DHT22;24821;51.988;6.020;2023-05-14T10:43:28;25.60;72.90
39067;DHT22;24821;51.988;6.020;2023-05-14T10:45:55;25.70;72.50
39067;DHT22;24821;51.988;6.020;2023-05-14T10:48:23;25.70;73.00
39067;DHT22;24821;51.988;6.020;2023-05-14T10:50:50;25.70;71.70
39067;DHT22;24821;51.988;6.020;2023-05-14T10:53:16;25.70;70.00
39067;DHT22;24821;51.988;6.020;2023-05-14T10:55:43;25.60;71.80
39067;DHT22;24821;51.988;6.020;2023-05-14T10:58:12;25.50;71.80
39067;DHT22;24821;51.988;6.020;2023-05-14T11:00:38;25.60;75.10
39067;DHT22;24821;51.988;6.020;2023-05-14T11:03:07;25.50;73.00
39067;DHT22;24821;51.988;6.020;2023-05-14T11:05:32;25.50;71.50
39067;DHT22;24821;51.988;6.020;2023-05-14T11:08:04;25.50;71.80
39067;DHT22;24821;51.988;6.020;2023-05-14T11:10:32;25.40;71.40
39067;DHT22;24821;51.988;6.020;2023-05-14T11:12:58;25.50;71.20
39067;DHT22;24821;51.988;6.020;2023-05-14T11:15:25;25.50;70.80
39067;DHT22;24821;51.988;6.020;2023-05-14T11:17:52;25.50;71.90
39067;DHT22;24821;51.988;6.020;2023-05-14T11:20:18;25.50;71.70
39067;DHT22;24821;51.988;6.020;2023-05-14T11:22:45;25.50;71.50
39067;DHT22;24821;51.988;6.020;2023-05-14T11:25:12;25.60;71.20
39067;DHT22;24821;51.988;6.020;2023-05-14T11:27:42;25.60;69.80
39067;DHT22;24821;51.988;6.020;2023-05-14T11:30:13;25.50;67.40
39067;DHT22;24821;51.988;6.020;2023-05-14T11:32:39;25.50;70.70
39067;DHT22;24821;51.988;6.020;2023-05-14T11:35:06;25.50;70.70
39067;DHT22;24821;51.988;6.020;2023-05-14T11:37:31;25.60;71.30
39067;DHT22;24821;51.988;6.020;2023-05-14T11:39:59;25.60;69.00
39067;DHT22;24821;51.988;6.020;2023-05-14T11:42:25;25.60;68.70
39067;DHT22;24821;51.988;6.020;2023-05-14T11:44:51;25.70;68.60
39067;DHT22;24821;51.988;6.020;2023-05-14T11:47:19;25.70;68.10
39067;DHT22;24821;51.988;6.020;2023-05-14T11:49:45;25.70;68.50
39067;DHT22;24821;51.988;6.020;2023-05-14T11:52:13;25.80;69.80
39067;DHT22;24821;51.988;6.020;2023-05-14T11:54:40;25.80;67.00
39067;DHT22;24821;51.988;6.020;2023-05-14T11:57:11;25.80;67.40
39067;DHT22;24821;51.988;6.020;2023-05-14T11:59:37;25.80;67.40
39067;DHT22;24821;51.988;6.020;2023-05-14T12:02:03;25.90;66.20
39067;DHT22;24821;51.988;6.020;2023-05-14T12:04:30;26.00;64.70
39067;DHT22;24821;51.988;6.020;2023-05-14T12:06:57;25.90;66.40
39067;DHT22;24821;51.988;6.020;2023-05-14T12:09:24;25.70;65.20
39067;DHT22;24821;51.988;6.020;2023-05-14T12:11:50;25.60;65.20
39067;DHT22;24821;51.988;6.020;2023-05-14T12:14:19;25.50;64.80
39067;DHT22;24821;51.988;6.020;2023-05-14T12:16:46;25.50;63.70
39067;DHT22;24821;51.988;6.020;2023-05-14T12:19:14;25.60;62.00
39067;DHT22;24821;51.988;6.020;2023-05-14T12:21:42;25.80;61.20
39067;DHT22;24821;51.988;6.020;2023-05-14T12:24:10;25.80;63.40
39067;DHT22;24821;51.988;6.020;2023-05-14T12:26:36;25.90;62.30
39067;DHT22;24821;51.988;6.020;2023-05-14T12:29:03;26.10;60.50
39067;DHT22;24821;51.988;6.020;2023-05-14T12:31:32;26.10;60.20
39067;DHT22;24821;51.988;6.020;2023-05-14T12:33:57;26.10;60.10
39067;DHT22;24821;51.988;6.020;2023-05-14T12:36:23;25.90;60.00
39067;DHT22;24821;51.988;6.020;2023-05-14T12:38:49;25.90;58.80
39067;DHT22;24821;51.988;6.020;2023-05-14T12:41:16;25.90;57.90
39067;DHT22;24821;51.988;6.020;2023-05-14T12:43:42;26.00;57.90
39067;DHT22;24821;51.988;6.020;2023-05-14T12:46:08;26.00;57.90
39067;DHT22;24821;51.988;6.020;2023-05-14T12:48:34;26.10;57.70
39067;DHT22;24821;51.988;6.020;2023-05-14T12:51:00;26.10;57.30
39067;DHT22;24821;51.988;6.020;2023-05-14T12:53:25;26.20;56.60
39067;DHT22;24821;51.988;6.020;2023-05-14T12:55:51;26.30;56.80
39067;DHT22;24821;51.988;6.020;2023-05-14T12:58:17;26.30;56.30
39067;DHT22;24821;51.988;6.020;2023-05-14T13:00:42;26.40;56.10
39067;DHT22;24821;51.988;6.020;2023-05-14T13:03:08;26.50;57.20
39067;DHT22;24821;51.988;6.020;2023-05-14T13:05:33;26.50;55.30
39067;DHT22;24821;51.988;6.020;2023-05-14T13:08:00;26.40;54.60
39067;DHT22;24821;51.988;6.020;2023-05-14T13:10:28;26.40;55.40
39067;DHT22;24821;51.988;6.020;2023-05-14T13:12:54;26.40;54.80
39067;DHT22;24821;51.988;6.020;2023-05-14T13:15:21;26.20;54.60
39067;DHT22;24821;51.988;6.020;2023-05-14T13:17:47;26.20;54.60
39067;DHT22;24821;51.988;6.020;2023-05-14T13:20:13;26.20;56.10
39067;DHT22;24821;51.988;6.020;2023-05-14T13:22:38;26.10;56.90
39067;DHT22;24821;51.988;6.020;2023-05-14T13:25:04;26.00;56.80
39067;DHT22;24821;51.988;6.020;2023-05-14T13:27:30;25.90;55.50
39067;DHT22;24821;51.988;6.020;2023-05-14T13:29:56;25.90;56.20
39067;DHT22;24821;51.988;6.020;2023-05-14T13:32:23;25.80;55.70
39067;DHT22;24821;51.988;6.020;2023-05-14T13:34:48;25.70;57.30
39067;DHT22;24821;51.988;6.020;2023-05-14T13:37:14;25.80;59.10
39067;DHT22;24821;51.988;6.020;2023-05-14T13:39:39;25.80;58.40
39067;DHT22;24821;51.988;6.020;2023-05-14T13:42:05;25.70;57.70
39067;DHT22;24821;51.988;6.020;2023-05-14T13:44:31;25.80;60.40
39067;DHT22;24821;51.988;6.020;2023-05-14T13:46:56;25.80;58.60
39067;DHT22;24821;51.988;6.020;2023-05-14T13:49:22;25.90;58.90
39067;DHT22;24821;51.988;6.020;2023-05-14T13:51:47;25.90;60.40
39067;DHT22;24821;51.988;6.020;2023-05-14T13:54:13;25.90;60.40
39067;DHT22;24821;51.988;6.020;2023-05-14T13:56:38;25.90;61.50
39067;DHT22;24821;51.988;6.020;2023-05-14T13:59:04;25.90;61.80
39067;DHT22;24821;51.988;6.020;2023-05-14T14:01:30;26.00;60.30
39067;DHT22;24821;51.988;6.020;2023-05-14T14:03:55;26.00;61.50
39067;DHT22;24821;51.988;6.020;2023-05-14T14:06:21;25.90;59.80
39067;DHT22;24821;51.988;6.020;2023-05-14T14:08:46;25.90;59.40
39067;DHT22;24821;51.988;6.020;2023-05-14T14:11:12;25.80;61.00
39067;DHT22;24821;51.988;6.020;2023-05-14T14:13:38;25.80;60.80
39067;DHT22;24821;51.988;6.020;2023-05-14T14:16:05;25.90;61.00
39067;DHT22;24821;51.988;6.020;2023-05-14T14:18:31;25.90;60.30
39067;DHT22;24821;51.988;6.020;2023-05-14T14:20:57;25.90;61.70
39067;DHT22;24821;51.988;6.020;2023-05-14T14:23:22;25.80;61.60
39067;DHT22;24821;51.988;6.020;2023-05-14T14:25:48;25.70;61.60
39067;DHT22;24821;51.988;6.020;2023-05-14T14:28:13;25.70;60.90
39067;DHT22;24821;51.988;6.020;2023-05-14T14:30:39;25.60;62.10
39067;DHT22;24821;51.988;6.020;2023-05-14T14:33:05;25.60;62.90
39067;DHT22;24821;51.988;6.020;2023-05-14T14:35:31;25.50;63.40
39067;DHT22;24821;51.988;6.020;2023-05-14T14:37:57;25.50;62.20
39067;DHT22;24821;51.988;6.020;2023-05-14T14:40:23;25.40;63.30
39067;DHT22;24821;51.988;6.020;2023-05-14T14:42:50;25.40;64.60
39067;DHT22;24821;51.988;6.020;2023-05-14T14:45:16;25.40;64.30
39067;DHT22;24821;51.988;6.020;2023-05-14T14:47:43;25.40;64.90
39067;DHT22;24821;51.988;6.020;2023-05-14T14:50:10;25.40;65.30
39067;DHT22;24821;51.988;6.020;2023-05-14T14:52:36;25.30;64.30
39067;DHT22;24821;51.988;6.020;2023-05-14T14:55:02;25.30;63.30
39067;DHT22;24821;51.988;6.020;2023-05-14T14:57:28;25.20;63.90
39067;DHT22;24821;51.988;6.020;2023-05-14T14:59:53;25.10;65.10
39067;DHT22;24821;51.988;6.020;2023-05-14T15:02:19;25.00;63.30
39067;DHT22;24821;51.988;6.020;2023-05-14T15:04:45;24.90;62.50
39067;DHT22;24821;51.988;6.020;2023-05-14T15:07:10;24.70;61.30
39067;DHT22;24821;51.988;6.020;2023-05-14T15:09:36;24.60;60.00
39067;DHT22;24821;51.988;6.020;2023-05-14T15:12:01;24.30;59.30
39067;DHT22;24821;51.988;6.020;2023-05-14T15:14:27;24.30;61.10
39067;DHT22;24821;51.988;6.020;2023-05-14T15:16:53;24.20;61.90
39067;DHT22;24821;51.988;6.020;2023-05-14T15:19:18;24.10;63.20
39067;DHT22;24821;51.988;6.020;2023-05-14T15:21:44;24.00;64.80
39067;DHT22;24821;51.988;6.020;2023-05-14T15:24:12;23.90;65.70
39067;DHT22;24821;51.988;6.020;2023-05-14T15:26:38;23.90;64.20
39067;DHT22;24821;51.988;6.020;2023-05-14T15:29:04;23.90;63.60
39067;DHT22;24821;51.988;6.020;2023-05-14T15:31:30;23.80;63.40
39067;DHT22;24821;51.988;6.020;2023-05-14T15:33:55;23.80;62.00
39067;DHT22;24821;51.988;6.020;2023-05-14T15:36:21;23.70;62.20